createdAt,value
2019-04-23T00:02:44.432Z,6.95
2019-04-23T00:05:21.150Z,9.25
2019-04-23T00:07:49.826Z,6.62
2019-04-23T00:10:19.467Z,6.50
2019-04-23T00:12:47.842Z,4.12
2019-04-23T00:15:30.853Z,2.67
2019-04-23T00:17:48.904Z,5.28
2019-04-23T00:23:09.584Z,7.17
2019-04-23T00:26:02.626Z,7.03
2019-04-23T00:28:21.641Z,3.70
2019-04-23T00:30:54.981Z,3.90
2019-04-23T00:35:53.344Z,4.58
2019-04-23T00:38:26.516Z,6.65
2019-04-23T00:40:55.153Z,5.75
2019-04-23T00:43:24.354Z,9.58
2019-04-23T00:45:48.855Z,5.15
2019-04-23T00:48:28.232Z,5.37
2019-04-23T00:53:22.101Z,3.02
2019-04-23T00:56:05.610Z,7.28
2019-04-23T00:58:32.373Z,3.52
2019-04-23T01:00:57.936Z,7.12
2019-04-23T01:03:21.447Z,5.20
2019-04-23T01:05:54.881Z,4.28
2019-04-23T01:13:39.589Z,5.80
2019-04-23T01:20:59.007Z,3.62
2019-04-23T01:23:53.828Z,8.23
2019-04-23T01:26:35.594Z,7.50
2019-04-23T01:29:12.594Z,3.77
2019-04-23T01:31:41.429Z,9.80
2019-04-23T01:34:21.855Z,5.92
2019-04-23T01:36:48.754Z,8.30
2019-04-23T01:41:52.327Z,5.87
2019-04-23T01:44:27.849Z,4.70
2019-04-23T01:46:49.300Z,3.95
2019-04-23T01:49:20.789Z,7.15
2019-04-23T01:51:55.770Z,12.58
2019-04-23T01:54:24.124Z,4.40
2019-04-23T01:56:49.121Z,5.58
2019-04-23T01:59:22.277Z,12.65
2019-04-23T02:01:50.405Z,6.75
2019-04-23T02:04:24.396Z,6.97
2019-04-23T02:06:50.484Z,5.35
2019-04-23T02:09:25.484Z,6.90
2019-04-23T02:11:53.830Z,3.65
2019-04-23T02:14:20.949Z,4.62
2019-04-23T02:16:50.001Z,6.85
2019-04-23T02:19:33.340Z,8.20
2019-04-23T02:22:17.502Z,8.10
2019-04-23T02:24:47.684Z,5.25
2019-04-23T02:27:22.479Z,6.37
2019-04-23T02:30:20.870Z,6.62
2019-04-23T02:32:34.046Z,5.22
2019-04-23T02:34:57.801Z,7.53
2019-04-23T02:37:35.602Z,4.00
2019-04-23T02:40:01.914Z,5.58
2019-04-23T02:42:43.277Z,6.35
2019-04-23T02:44:58.185Z,6.75
2019-04-23T02:47:46.637Z,6.17
2019-04-23T02:50:09.245Z,5.20
2019-04-23T02:55:03.772Z,6.30
2019-04-23T02:57:29.770Z,6.30
2019-04-23T03:05:00.820Z,6.85
2019-04-23T03:07:38.964Z,4.85
2019-04-23T03:10:03.317Z,6.20
2019-04-23T03:12:37.734Z,8.03
2019-04-23T03:15:29.736Z,6.95
2019-04-23T03:21:19.074Z,5.60
2019-04-23T03:23:44.820Z,7.12
2019-04-23T03:32:48.434Z,7.05
2019-04-23T03:42:12.324Z,7.62
2019-04-23T03:43:41.145Z,6.12
2019-04-23T03:48:46.945Z,6.03
2019-04-23T03:51:16.300Z,6.25
2019-04-23T03:54:21.804Z,9.80
2019-04-23T03:56:41.604Z,11.38
2019-04-23T03:58:49.391Z,12.82
2019-04-23T04:07:08.493Z,10.88
2019-04-23T04:09:03.471Z,15.78
2019-04-23T04:14:01.473Z,12.78
2019-04-23T04:18:54.250Z,11.33
2019-04-23T04:24:05.380Z,11.48
2019-04-23T04:26:37.796Z,12.45
2019-04-23T04:29:19.446Z,14.07
2019-04-23T04:31:30.986Z,21.68
2019-04-23T04:36:32.598Z,11.70
2019-04-23T04:38:57.204Z,15.38
2019-04-23T04:46:50.669Z,7.62
2019-04-23T04:51:37.623Z,16.00
2019-04-23T04:54:13.912Z,8.53
2019-04-23T04:59:03.819Z,9.40
2019-04-23T05:01:28.765Z,12.00
2019-04-23T05:04:02.246Z,12.53
2019-04-23T05:06:44.396Z,9.20
2019-04-23T05:09:19.549Z,10.90
2019-04-23T05:14:26.501Z,10.70
2019-04-23T05:16:33.727Z,11.55
2019-04-23T05:21:46.604Z,12.75
2019-04-23T05:24:08.761Z,13.40
2019-04-23T05:31:32.549Z,9.70
2019-04-23T05:36:43.815Z,10.75
2019-04-23T05:39:15.848Z,13.93
2019-04-23T05:41:40.109Z,14.58
2019-04-23T05:44:17.147Z,11.03
2019-04-23T05:46:36.677Z,10.48
2019-04-23T05:49:13.680Z,11.50
2019-04-23T05:51:50.413Z,11.70
2019-04-23T05:54:12.574Z,13.65
2019-04-23T05:56:55.257Z,11.75
2019-04-23T06:01:58.836Z,15.48
2019-04-23T06:04:17.599Z,12.03
2019-04-23T06:07:04.705Z,13.22
2019-04-23T06:09:20.427Z,14.45
2019-04-23T06:14:35.293Z,15.00
2019-04-23T06:16:49.865Z,15.40
2019-04-23T06:19:30.501Z,20.00
2019-04-23T06:26:51.710Z,15.00
2019-04-23T06:31:49.231Z,17.50
2019-04-23T06:34:21.752Z,12.85
2019-04-23T06:36:51.329Z,15.68
2019-04-23T06:39:26.417Z,15.40
2019-04-23T06:41:55.019Z,17.90
2019-04-23T06:49:37.592Z,14.33
2019-04-23T06:54:35.866Z,14.18
2019-04-23T06:57:09.018Z,15.40
2019-04-23T06:59:30.737Z,16.27
2019-04-23T07:02:08.397Z,16.82
2019-04-23T07:04:38.178Z,15.13
2019-04-23T07:09:26.220Z,13.75
2019-04-23T07:12:07.689Z,19.60
2019-04-23T07:14:44.547Z,16.02
2019-04-23T07:17:21.300Z,12.73
2019-04-23T07:22:14.668Z,13.32
2019-04-23T07:24:43.700Z,18.50
2019-04-23T07:27:11.235Z,18.52
2019-04-23T07:29:43.496Z,15.13
2019-04-23T07:32:23.726Z,13.25
2019-04-23T07:34:41.482Z,22.50
2019-04-23T07:37:15.680Z,14.93
2019-04-23T07:40:22.919Z,14.23
2019-04-23T07:42:55.106Z,16.12
2019-04-23T07:45:49.431Z,16.73
2019-04-23T07:53:31.259Z,14.68
2019-04-23T07:58:25.791Z,11.90
2019-04-23T08:05:42.544Z,16.12
2019-04-23T08:08:16.999Z,15.78
2019-04-23T08:11:30.770Z,12.33
2019-04-23T08:16:19.603Z,14.45
2019-04-23T08:18:48.048Z,15.98
2019-04-23T08:21:13.145Z,17.57
2019-04-23T08:24:10.316Z,12.45
2019-04-23T08:27:10.052Z,13.78
2019-04-23T08:29:54.423Z,16.87
2019-04-23T08:32:18.617Z,17.73
2019-04-23T08:34:54.352Z,19.30
2019-04-23T08:37:25.334Z,12.80
2019-04-23T08:39:46.986Z,13.80
2019-04-23T08:48:24.365Z,16.93
2019-04-23T08:53:31.714Z,12.73
2019-04-23T08:55:53.590Z,12.45
2019-04-23T08:58:19.164Z,12.85
2019-04-23T09:00:55.255Z,13.70
2019-04-23T09:03:25.234Z,18.02
2019-04-23T09:05:53.121Z,13.98
2019-04-23T09:08:20.383Z,12.37
2019-04-23T09:10:55.936Z,15.85
2019-04-23T09:18:20.987Z,12.50
2019-04-23T09:20:49.705Z,14.50
2019-04-23T09:23:30.877Z,12.95
2019-04-23T09:25:55.879Z,12.47
2019-04-23T09:28:38.488Z,15.18
2019-04-23T09:31:04.106Z,13.98
2019-04-23T09:33:41.370Z,13.53
2019-04-23T09:36:13.623Z,11.75
2019-04-23T09:47:14.280Z,12.80
2019-04-23T09:49:42.460Z,15.83
2019-04-23T09:52:17.574Z,13.93
2019-04-23T09:54:52.344Z,15.48
2019-04-23T09:57:24.317Z,11.25
2019-04-23T09:59:43.068Z,17.37
2019-04-23T10:02:05.298Z,16.35
2019-04-23T10:04:31.982Z,13.93
2019-04-23T10:07:01.679Z,12.93
2019-04-23T10:09:18.827Z,16.57
2019-04-23T10:11:49.279Z,13.40
2019-04-23T10:14:18.662Z,12.85
2019-04-23T10:16:49.240Z,16.97
2019-04-23T10:19:18.978Z,13.25
2019-04-23T10:21:49.141Z,13.85
2019-04-23T10:24:19.159Z,13.05
2019-04-23T10:26:48.205Z,17.15
2019-04-23T10:29:23.724Z,12.05
2019-04-23T10:31:53.571Z,19.17
2019-04-23T10:34:23.305Z,13.18
2019-04-23T10:36:53.616Z,12.95
2019-04-23T10:39:28.376Z,15.13
2019-04-23T10:41:55.306Z,11.83
2019-04-23T10:44:35.520Z,13.08
2019-04-23T10:47:54.416Z,10.45
2019-04-23T10:53:28.342Z,12.78
2019-04-23T10:56:01.055Z,11.45
2019-04-23T11:00:53.817Z,17.35
2019-04-23T11:03:47.352Z,12.13
2019-04-23T11:05:59.115Z,13.95
2019-04-23T11:08:27.703Z,12.10
2019-04-23T11:10:58.965Z,14.68
2019-04-23T11:13:31.847Z,16.45
2019-04-23T11:16:24.783Z,11.08
2019-04-23T11:18:50.163Z,18.20
2019-04-23T11:21:05.302Z,15.72
2019-04-23T11:23:38.804Z,10.53
2019-04-23T11:26:06.989Z,16.70
2019-04-23T11:28:37.799Z,16.95
2019-04-23T11:31:25.605Z,12.15
2019-04-23T11:33:46.130Z,12.18
2019-04-23T11:36:43.613Z,12.60
2019-04-23T11:41:21.510Z,15.78
2019-04-23T11:46:39.526Z,14.25
2019-04-23T11:49:19.719Z,15.90
2019-04-23T11:53:48.224Z,11.15
2019-04-23T11:56:35.356Z,14.58
2019-04-23T11:58:45.850Z,13.10
2019-04-23T12:01:52.239Z,11.97
2019-04-23T12:04:57.433Z,11.30
2019-04-23T12:07:28.122Z,10.80
2019-04-23T12:12:31.277Z,11.85
2019-04-23T12:15:19.490Z,13.15
2019-04-23T12:22:43.520Z,11.93
2019-04-23T12:27:33.164Z,11.83
2019-04-23T12:30:08.355Z,10.90
2019-04-23T12:47:59.879Z,12.03
2019-04-23T12:52:55.679Z,20.50
2019-04-23T12:55:34.138Z,12.98
2019-04-23T12:58:03.517Z,12.23
2019-04-23T13:00:27.147Z,17.98
2019-04-23T13:03:09.769Z,13.90
2019-04-23T13:05:27.006Z,13.03
2019-04-23T13:13:09.447Z,15.13
2019-04-23T13:15:29.388Z,16.70
2019-04-23T13:20:32.151Z,19.30
2019-04-23T13:26:11.818Z,13.85
2019-04-23T13:41:17.339Z,16.73
2019-04-23T13:43:40.096Z,17.42
2019-04-23T13:46:13.704Z,14.38
2019-04-23T13:48:39.217Z,11.28
2019-04-23T13:56:25.257Z,14.58
2019-04-23T14:08:55.209Z,13.95
2019-04-23T14:13:58.583Z,13.10
2019-04-23T14:21:25.288Z,10.05
2019-04-23T14:31:38.977Z,13.53
2019-04-23T14:36:32.881Z,14.83
2019-04-23T14:38:59.582Z,16.85
2019-04-23T14:41:44.017Z,19.25
2019-04-23T14:44:10.474Z,12.28
2019-04-23T14:49:10.951Z,14.23
2019-04-23T14:54:15.677Z,13.55
2019-04-23T14:56:47.798Z,13.78
2019-04-23T15:01:40.254Z,13.93
2019-04-23T15:04:10.988Z,15.50
2019-04-23T15:06:54.831Z,10.88
2019-04-23T15:09:22.990Z,15.68
2019-04-23T15:11:59.305Z,10.75
2019-04-23T15:14:17.170Z,12.90
2019-04-23T15:19:34.989Z,13.28
2019-04-23T15:29:08.601Z,12.10
2019-04-23T15:31:55.452Z,19.20
2019-04-23T15:37:20.325Z,16.77
2019-04-23T15:44:41.937Z,13.25
2019-04-23T15:47:05.082Z,11.28
2019-04-23T15:49:26.582Z,11.50
2019-04-23T15:52:18.928Z,20.88
2019-04-23T15:54:35.709Z,12.28
2019-04-23T15:57:01.179Z,10.95
2019-04-23T15:59:34.944Z,13.45
2019-04-23T16:01:41.864Z,11.18
2019-04-23T16:04:06.103Z,12.95
2019-04-23T16:06:37.380Z,17.85
2019-04-23T16:09:28.428Z,14.85
2019-04-23T16:12:01.073Z,10.75
2019-04-23T16:14:47.924Z,13.20
2019-04-23T16:17:14.076Z,12.80
2019-04-23T16:19:59.684Z,12.98
2019-04-23T16:22:20.415Z,10.93
2019-04-23T16:25:01.110Z,10.53
2019-04-23T16:27:34.964Z,9.93
2019-04-23T16:35:28.689Z,9.95
2019-04-23T16:38:01.442Z,9.30
2019-04-23T16:40:28.952Z,12.20
2019-04-23T16:42:58.053Z,13.70
2019-04-23T16:45:31.067Z,11.70
2019-04-23T16:47:56.613Z,12.88
2019-04-23T16:50:20.847Z,10.38
2019-04-23T16:52:53.632Z,13.15
2019-04-23T16:55:24.204Z,13.35
2019-04-23T16:58:01.569Z,12.25
2019-04-23T17:03:07.923Z,12.82
2019-04-23T17:05:24.959Z,14.65
2019-04-23T17:08:27.100Z,11.45
2019-04-23T17:10:30.990Z,16.55
2019-04-23T17:18:02.423Z,9.90
2019-04-23T17:20:30.918Z,11.55
2019-04-23T17:23:07.530Z,9.83
2019-04-23T17:25:48.365Z,11.85
2019-04-23T17:30:32.398Z,13.83
2019-04-23T17:35:55.805Z,11.73
2019-04-23T17:38:24.129Z,14.47
2019-04-23T17:41:10.135Z,16.15
2019-04-23T17:43:36.352Z,14.18
2019-04-23T17:46:08.813Z,19.05
2019-04-23T17:48:35.934Z,13.65
2019-04-23T17:51:11.593Z,20.55
2019-04-23T17:53:42.527Z,15.80
2019-04-23T17:56:16.683Z,15.03
2019-04-23T17:58:40.857Z,18.57
2019-04-23T18:03:55.848Z,18.92
2019-04-23T18:08:50.851Z,17.73
2019-04-23T18:11:16.011Z,19.10
2019-04-23T18:13:50.451Z,11.85
2019-04-23T18:16:30.608Z,15.85
2019-04-23T18:19:10.045Z,13.65
2019-04-23T18:24:27.399Z,15.48
2019-04-23T18:27:04.952Z,22.27
2019-04-23T18:30:02.684Z,19.87
2019-04-23T18:37:25.744Z,15.40
2019-04-23T18:39:56.520Z,21.35
2019-04-23T18:44:55.789Z,17.90
2019-04-23T18:47:35.407Z,14.75
2019-04-23T18:49:52.977Z,22.48
2019-04-23T18:52:33.108Z,17.82
2019-04-23T18:54:55.695Z,20.85
2019-04-23T18:57:36.781Z,17.50
2019-04-23T19:00:02.545Z,17.10
2019-04-23T19:02:58.470Z,16.48
2019-04-23T19:05:30.922Z,16.23
2019-04-23T19:11:07.272Z,12.80
2019-04-23T19:13:41.834Z,18.85
2019-04-23T19:15:59.779Z,16.70
2019-04-23T19:18:40.385Z,18.67
2019-04-23T19:23:51.124Z,21.25
2019-04-23T19:26:15.794Z,16.62
2019-04-23T19:28:48.817Z,18.07
2019-04-23T19:31:26.299Z,20.57
2019-04-23T19:34:29.856Z,20.30
2019-04-23T19:39:24.658Z,28.07
2019-04-23T19:42:06.223Z,18.40
2019-04-23T19:44:27.991Z,20.43
2019-04-23T19:51:56.765Z,19.02
2019-04-23T19:59:31.553Z,20.00
2019-04-23T20:02:02.069Z,20.57
2019-04-23T20:04:34.058Z,20.57
2019-04-23T20:12:03.313Z,20.12
2019-04-23T20:14:32.405Z,23.02
2019-04-23T20:17:20.283Z,20.50
2019-04-23T20:19:37.658Z,21.65
2019-04-23T20:24:53.379Z,22.60
2019-04-23T20:30:15.512Z,22.67
2019-04-23T20:35:16.435Z,24.07
2019-04-23T20:42:49.731Z,19.87
2019-04-23T20:45:16.515Z,26.90
2019-04-23T20:50:10.666Z,20.17
2019-04-23T20:52:46.884Z,21.80
2019-04-23T20:55:51.075Z,23.92
2019-04-23T20:58:06.785Z,17.82
2019-04-23T21:05:41.847Z,24.70
2019-04-23T21:08:14.214Z,22.25
2019-04-23T21:10:55.666Z,20.75
2019-04-23T21:13:27.773Z,23.38
2019-04-23T21:15:54.649Z,24.63
2019-04-23T21:18:27.811Z,22.52
2019-04-23T21:20:54.996Z,19.40
2019-04-23T21:25:50.627Z,25.00
2019-04-23T21:33:36.822Z,21.20
2019-04-23T21:36:18.837Z,20.25
2019-04-23T21:39:15.442Z,20.35
2019-04-23T21:47:07.730Z,27.67
2019-04-23T21:51:51.158Z,22.65
2019-04-23T21:54:20.837Z,21.97
2019-04-23T21:59:22.750Z,24.18
2019-04-23T22:01:59.302Z,21.20
2019-04-23T22:06:52.970Z,21.05
2019-04-23T22:09:27.016Z,26.07
2019-04-23T22:14:26.638Z,18.37
2019-04-23T22:17:04.036Z,20.10
2019-04-23T22:19:45.551Z,26.42
2019-04-23T22:21:55.584Z,23.85
2019-04-23T22:24:46.416Z,24.70
2019-04-23T22:26:58.369Z,24.95
2019-04-23T22:29:35.956Z,20.70
2019-04-23T22:39:39.963Z,23.38
2019-04-23T22:42:22.437Z,24.27
2019-04-23T22:44:52.962Z,24.90
2019-04-23T22:49:45.272Z,30.52
2019-04-23T22:52:16.565Z,21.15
2019-04-23T22:54:51.319Z,29.52
2019-04-23T22:57:09.182Z,30.37
2019-04-23T23:00:00.889Z,32.93
2019-04-23T23:02:54.028Z,22.98
2019-04-23T23:07:59.430Z,24.50
2019-04-23T23:10:12.455Z,27.32
2019-04-23T23:12:52.759Z,25.10
2019-04-23T23:15:16.886Z,22.32
2019-04-23T23:18:02.061Z,23.80
2019-04-23T23:20:29.545Z,26.35
2019-04-23T23:22:58.472Z,23.02
2019-04-23T23:25:19.096Z,24.82
2019-04-23T23:27:57.762Z,30.70
2019-04-23T23:30:19.797Z,30.00
2019-04-23T23:32:58.153Z,36.85
2019-04-23T23:35:21.876Z,30.85
2019-04-23T23:37:54.062Z,25.97
2019-04-23T23:40:21.849Z,23.30
2019-04-23T23:43:07.200Z,28.10
2019-04-23T23:45:25.280Z,24.27
2019-04-23T23:50:25.146Z,27.80
2019-04-23T23:53:02.854Z,22.02
2019-04-23T23:55:24.994Z,24.47
2019-04-23T23:58:01.846Z,23.55
